Time;durP1;ratioP1;P1;durP2;ratioP2;P2;SDS_P1;SDS_P2;PMS_P1;PMS_P2;Temp;Humidity;BMP_temperature;BMP_pressure;BME280_temperature;BME280_humidity;BME280_pressure;Samples;Min_cycle;Max_cycle;Signal;HPM_P1;HPM_P2
2023/08/12 00:00:36;;;;;;;2.30;2.20;;;22.70;99.90;;;23.11;89.15;101611.72;5062379;28;20098;-70
2023/08/12 00:03:05;;;;;;;2.10;2.00;;;22.70;99.90;;;23.09;89.67;101602.81;5062749;28;20044;-71
2023/08/12 00:05:35;;;;;;;2.10;2.00;;;22.70;99.90;;;23.12;89.45;101607.22;5061521;28;20478;-70
2023/08/12 00:08:04;;;;;;;2.28;2.17;;;22.70;99.90;;;23.14;89.53;101608.03;5059231;28;20053;-70
2023/08/12 00:10:33;;;;;;;2.13;2.03;;;22.80;99.90;;;23.11;89.69;101602.78;5064218;28;20041;-72
2023/08/12 00:13:01;;;;;;;2.15;2.05;;;22.70;99.90;;;23.08;89.82;101603.78;5060491;28;20124;-70
2023/08/12 00:15:31;;;;;;;2.50;2.33;;;22.70;99.90;;;23.03;89.85;101602.22;5063667;28;20493;-70
2023/08/12 00:17:59;;;;;;;2.17;2.08;;;22.70;99.90;;;23.01;90.05;101593.31;5061550;28;20091;-70
2023/08/12 00:20:28;;;;;;;2.17;2.08;;;22.60;99.90;;;23.06;90.11;101589.47;5062262;28;20049;-71
2023/08/12 00:22:57;;;;;;;2.13;2.03;;;22.70;99.90;;;23.06;89.88;101588.59;5062263;28;20052;-70
2023/08/12 00:25:25;;;;;;;2.15;2.05;;;22.70;99.90;;;22.97;89.97;101575.50;5061522;28;20114;-70
2023/08/12 00:27:54;;;;;;;2.28;2.17;;;22.70;99.90;;;22.98;90.08;101583.53;5063038;28;20066;-70
2023/08/12 00:30:22;;;;;;;2.60;2.50;;;22.60;99.90;;;22.99;89.88;101584.41;5060772;28;20045;-70
2023/08/12 00:32:52;;;;;;;2.38;2.28;;;22.60;99.90;;;22.93;90.36;101576.59;5063936;28;20541;-70
2023/08/12 00:35:20;;;;;;;2.47;2.38;;;22.60;99.90;;;22.94;90.44;101571.13;5070790;28;20140;-70
2023/08/12 00:37:49;;;;;;;2.40;2.30;;;22.60;99.90;;;22.93;90.58;101566.69;5060858;28;20118;-70
2023/08/12 00:40:17;;;;;;;2.08;1.98;;;22.60;99.90;;;22.94;90.43;101565.72;5062951;28;20041;-70
2023/08/12 00:42:46;;;;;;;2.63;2.53;;;22.50;99.90;;;22.96;90.82;101569.22;5061536;28;20090;-70
2023/08/12 00:45:15;;;;;;;2.30;2.20;;;22.60;99.90;;;22.97;90.69;101578.22;5062152;28;20044;-70
2023/08/12 00:47:43;;;;;;;2.55;2.45;;;22.60;99.90;;;22.97;90.75;101567.41;5066007;28;20041;-70
2023/08/12 00:50:15;;;;;;;2.20;2.10;;;22.60;99.90;;;23.02;90.41;101573.47;5065173;28;20048;-70
2023/08/12 00:52:45;;;;;;;2.10;2.00;;;22.60;99.90;;;23.04;90.32;101571.56;5062644;28;20052;-70
2023/08/12 00:55:14;;;;;;;2.33;2.22;;;22.60;99.90;;;23.04;90.01;101563.47;5063835;28;20095;-70
2023/08/12 00:57:42;;;;;;;2.20;2.10;;;22.70;99.90;;;23.10;89.93;101563.22;5074294;28;20052;-70
2023/08/12 01:00:13;;;;;;;2.50;2.40;;;22.70;99.90;;;23.09;90.15;101556.06;5059692;28;20079;-70
2023/08/12 01:02:45;;;;;;;2.15;2.05;;;22.70;99.90;;;23.07;90.06;101556.13;5065234;28;20051;-70
2023/08/12 01:05:15;;;;;;;2.60;2.50;;;22.70;99.90;;;23.08;90.02;101554.31;5064978;28;20413;-70
2023/08/12 01:07:45;;;;;;;2.28;2.17;;;22.70;99.90;;;22.48;89.78;101441.88;5066775;28;20053;-70
2023/08/12 01:10:15;;;;;;;2.40;2.30;;;22.70;99.90;;;23.08;89.91;101541.69;5063709;28;20819;-70
2023/08/12 01:12:51;;;;;;;2.00;1.90;;;22.70;99.90;;;23.11;90.10;101546.09;5063721;28;20053;-70
2023/08/12 01:15:23;;;;;;;2.42;2.33;;;22.70;99.90;;;23.08;89.87;101536.28;5065835;28;20059;-70
2023/08/12 01:17:55;;;;;;;2.38;2.28;;;22.70;99.90;;;23.08;90.26;101538.09;5065971;28;20044;-71
2023/08/12 01:20:26;;;;;;;1.85;1.77;;;22.70;99.90;;;23.01;90.70;101536.66;5063972;28;20132;-70
2023/08/12 01:23:08;;;;;;;2.40;2.30;;;22.70;99.90;;;22.95;90.76;101526.13;5055221;28;20055;-70
2023/08/12 01:25:37;;;;;;;2.40;2.30;;;22.60;99.90;;;22.83;91.66;101534.75;5065619;28;20049;-70
2023/08/12 01:28:06;;;;;;;2.50;2.40;;;22.50;99.90;;;22.85;91.75;101531.06;5071166;28;20106;-69
2023/08/12 01:30:40;;;;;;;2.65;2.55;;;22.50;99.90;;;22.84;92.13;101525.72;5066399;28;20048;-70
2023/08/12 01:33:15;;;;;;;2.10;2.00;;;22.50;99.90;;;22.77;92.67;101527.81;5062190;28;20063;-70
2023/08/12 01:35:52;;;;;;;8.02;3.40;;;22.40;99.90;;;22.67;93.10;101522.88;5072149;28;20450;-70
2023/08/12 01:38:23;;;;;;;2.30;2.20;;;22.40;99.90;;;22.52;94.22;101516.31;5066117;28;20131;-72
2023/08/12 01:40:53;;;;;;;2.45;2.35;;;22.30;99.90;;;22.48;95.02;101517.38;5063142;28;20055;-70
2023/08/12 01:43:22;;;;;;;2.60;2.50;;;22.20;99.90;;;22.48;95.42;101511.09;5078877;28;20052;-70
2023/08/12 01:45:51;;;;;;;2.15;2.05;;;22.20;99.90;;;22.48;95.47;101516.50;5072641;28;20048;-70
2023/08/12 01:48:20;;;;;;;2.20;2.10;;;22.10;99.90;;;22.40;96.12;101501.53;5059549;28;20049;-70
2023/08/12 01:50:48;;;;;;;2.28;2.17;;;22.10;99.90;;;22.47;96.47;101506.66;5064561;28;20441;-70
2023/08/12 01:53:17;;;;;;;2.63;2.53;;;22.10;99.90;;;22.50;96.48;101506.53;5070871;28;20044;-70
2023/08/12 01:55:46;;;;;;;2.20;2.10;;;22.20;99.90;;;22.47;96.96;101515.66;5060958;28;20051;-70
2023/08/12 01:58:15;;;;;;;2.55;2.45;;;22.10;99.90;;;22.54;97.12;101508.16;5071265;28;20045;-71
2023/08/12 02:00:43;;;;;;;2.40;2.30;;;22.20;99.90;;;22.55;97.00;101505.38;5069763;28;20520;-70
2023/08/12 02:03:12;;;;;;;2.35;2.25;;;22.20;99.90;;;22.57;97.32;101510.75;5066247;28;20045;-70
2023/08/12 02:05:41;;;;;;;3.15;3.05;;;22.30;99.90;;;22.62;97.00;101498.81;5053097;28;20049;-70
2023/08/12 02:08:09;;;;;;;2.55;2.45;;;22.30;99.90;;;22.62;97.43;101493.44;5060728;28;20053;-70
2023/08/12 02:10:38;;;;;;;2.58;2.47;;;22.40;99.90;;;22.69;97.16;101499.41;5058071;28;20052;-70
2023/08/12 02:13:08;;;;;;;2.60;2.50;;;22.40;99.90;;;22.74;97.17;101489.31;5064569;28;20056;-70
2023/08/12 02:15:37;;;;;;;2.57;2.47;;;22.40;99.90;;;22.82;96.79;101487.16;5060060;28;20106;-70
2023/08/12 02:18:06;;;;;;;2.22;2.13;;;22.50;99.90;;;22.89;95.98;101488.63;5080112;28;20059;-70
2023/08/12 02:20:35;;;;;;;2.30;2.20;;;22.50;99.90;;;22.91;95.84;101492.13;5062915;28;20046;-70
2023/08/12 02:23:04;;;;;;;2.67;2.58;;;22.60;99.90;;;22.89;95.60;101488.63;5065774;28;20068;-71
2023/08/12 02:25:33;;;;;;;2.40;2.30;;;22.60;99.90;;;22.94;95.66;101489.25;5069334;28;20491;-70
2023/08/12 02:28:01;;;;;;;2.42;2.33;;;22.60;99.90;;;22.93;95.76;101495.63;5060908;28;20127;-70
2023/08/12 02:30:31;;;;;;;2.42;2.33;;;22.60;99.90;;;22.91;96.03;101487.59;5065222;28;20045;-70
2023/08/12 02:33:00;;;;;;;2.80;2.70;;;22.60;99.90;;;22.89;96.56;101494.91;5063026;28;20720;-70
2023/08/12 02:35:28;;;;;;;2.60;2.50;;;22.50;99.90;;;22.88;96.97;101476.09;5071078;28;20040;-70
2023/08/12 02:37:56;;;;;;;2.50;2.40;;;22.50;99.90;;;22.88;97.18;101484.19;5063852;28;20059;-70
2023/08/12 02:40:25;;;;;;;2.38;2.28;;;22.50;99.90;;;22.90;97.42;101468.78;5063176;28;20064;-70
2023/08/12 02:42:53;;;;;;;2.63;2.53;;;22.50;99.90;;;22.91;97.77;101468.72;5064497;28;20157;-70
2023/08/12 02:45:21;;;;;;;2.58;2.47;;;22.50;99.90;;;22.95;97.72;101470.34;5062459;28;20048;-71
2023/08/12 02:47:51;;;;;;;3.25;3.15;;;22.60;99.90;;;22.95;97.81;101461.34;5060373;28;20059;-70
2023/08/12 02:50:20;;;;;;;2.45;2.35;;;22.60;99.90;;;22.99;97.62;101466.56;5068968;28;20045;-70
2023/08/12 02:52:48;;;;;;;2.63;2.53;;;22.60;99.90;;;23.01;97.64;101467.34;5060203;28;20492;-70
2023/08/12 02:55:16;;;;;;;2.47;2.38;;;22.60;99.90;;;23.01;97.60;101464.66;5060939;28;20049;-70
2023/08/12 02:57:45;;;;;;;2.25;2.15;;;22.70;99.90;;;23.07;97.49;101464.34;5070941;28;20040;-70
2023/08/12 03:00:15;;;;;;;2.55;2.45;;;22.70;99.90;;;23.09;97.46;101453.50;5058217;28;20075;-70
2023/08/12 03:02:44;;;;;;;2.33;2.22;;;22.70;99.90;;;23.05;97.82;101444.66;5063490;28;20053;-70
2023/08/12 03:05:14;;;;;;;2.30;2.20;;;22.70;99.90;;;23.07;97.94;101444.59;5069248;28;20048;-70
2023/08/12 03:07:42;;;;;;;2.33;2.22;;;22.70;99.90;;;22.99;98.50;101446.78;5059698;28;20084;-70
2023/08/12 03:10:11;;;;;;;2.75;2.65;;;22.70;99.90;;;22.99;98.91;101444.97;5076873;28;20049;-70
2023/08/12 03:12:40;;;;;;;2.22;2.13;;;22.60;99.90;;;22.97;98.99;101449.56;5051827;28;20552;-69
2023/08/12 03:15:11;;;;;;;2.67;2.58;;;22.60;99.90;;;22.99;99.00;101436.88;5059778;28;20588;-70
2023/08/12 03:17:40;;;;;;;2.38;2.28;;;22.60;99.90;;;22.93;98.89;101417.38;5063744;28;20102;-69
2023/08/12 03:20:10;;;;;;;2.05;1.95;;;22.60;99.90;;;22.97;98.83;101427.06;5078834;28;20557;-70
2023/08/12 03:22:40;;;;;;;2.50;2.40;;;22.60;99.90;;;22.99;98.69;101435.97;5058547;28;20455;-71
2023/08/12 03:25:10;;;;;;;2.42;2.33;;;22.60;99.90;;;22.94;98.51;101432.59;5070276;28;20052;-71
2023/08/12 03:27:38;;;;;;;2.22;2.13;;;22.60;99.90;;;22.98;98.50;101424.28;5068335;28;20052;-71
2023/08/12 03:30:11;;;;;;;2.83;2.72;;;22.60;99.90;;;22.94;98.46;101419.09;5076303;28;20072;-71
2023/08/12 03:32:41;;;;;;;2.33;2.22;;;22.60;99.90;;;22.97;98.60;101424.38;5070564;28;20056;-70
2023/08/12 03:35:10;;;;;;;2.00;1.90;;;22.60;99.90;;;22.97;98.61;101417.16;5057704;28;20053;-70
2023/08/12 03:37:40;;;;;;;2.50;2.40;;;22.60;99.90;;;22.98;98.55;101420.72;5078146;28;20053;-70
2023/08/12 03:40:10;;;;;;;2.47;2.38;;;22.60;99.90;;;22.94;99.24;101421.81;5069089;28;20080;-70
2023/08/12 03:42:40;;;;;;;2.45;2.35;;;22.60;99.90;;;22.83;99.60;101430.41;5076169;28;20540;-70
2023/08/12 03:45:09;;;;;;;2.47;2.38;;;22.50;99.90;;;22.86;100.00;101418.63;5076473;28;20045;-70
2023/08/12 03:47:38;;;;;;;2.28;2.17;;;22.50;99.90;;;22.84;99.93;101409.72;5051171;28;20069;-69
2023/08/12 03:50:08;;;;;;;2.25;2.15;;;22.50;99.90;;;22.92;99.95;101402.09;5059355;28;20399;-70
2023/08/12 03:52:36;;;;;;;2.40;2.30;;;22.50;99.90;;;22.89;100.00;101392.34;5059427;28;20052;-70
2023/08/12 03:55:08;;;;;;;2.20;2.10;;;22.50;99.90;;;22.88;100.00;101389.72;5057490;28;20048;-70
2023/08/12 03:57:37;;;;;;;2.47;2.38;;;22.50;99.90;;;22.59;100.00;101390.19;5078504;28;20045;-70
2023/08/12 04:00:08;;;;;;;2.40;2.30;;;22.30;99.90;;;22.35;100.00;101382.25;5068564;28;20048;-70
2023/08/12 04:02:41;;;;;;;2.55;2.45;;;22.10;99.90;;;22.31;100.00;101383.31;5060439;28;20095;-70
2023/08/12 04:05:11;;;;;;;2.60;2.50;;;22.00;99.90;;;22.35;100.00;101373.28;5070688;28;20056;-70
2023/08/12 04:07:39;;;;;;;2.80;2.70;;;22.00;99.90;;;22.35;100.00;101381.34;5056636;28;20090;-70
2023/08/12 04:10:10;;;;;;;2.83;2.72;;;22.00;99.90;;;22.39;100.00;101370.38;5077361;28;20506;-70
2023/08/12 04:12:39;;;;;;;2.45;2.35;;;22.10;99.90;;;22.40;100.00;101365.84;5062409;28;20094;-70
2023/08/12 04:15:09;;;;;;;2.50;2.40;;;22.10;99.90;;;22.32;100.00;101365.31;5058251;28;20091;-70
2023/08/12 04:17:37;;;;;;;2.50;2.40;;;22.10;99.90;;;22.35;100.00;101371.47;5070074;28;20048;-70
2023/08/12 04:20:09;;;;;;;2.50;2.40;;;22.10;99.90;;;22.40;100.00;101368.53;5067832;28;20033;-70
2023/08/12 04:22:38;;;;;;;3.58;3.38;;;22.10;99.90;;;22.47;100.00;101369.16;5054926;28;20048;-70
2023/08/12 04:25:08;;;;;;;2.70;2.60;;;22.10;99.90;;;22.48;100.00;101370.88;5063039;28;20103;-70
2023/08/12 04:27:37;;;;;;;2.75;2.65;;;22.20;99.90;;;21.91;100.00;101270.13;5055963;28;20084;-70
2023/08/12 04:30:08;;;;;;;2.33;2.22;;;22.20;99.90;;;22.44;100.00;101341.38;5064721;28;20463;-70
2023/08/12 04:32:36;;;;;;;2.55;2.45;;;22.20;99.90;;;22.63;100.00;101362.16;5072494;28;20450;-70
2023/08/12 04:35:07;;;;;;;2.45;2.35;;;22.30;99.90;;;22.69;100.00;101357.31;5062500;28;20156;-70
2023/08/12 04:37:38;;;;;;;2.55;2.45;;;22.30;99.90;;;22.76;100.00;101352.53;5074755;28;20067;-70
2023/08/12 04:40:11;;;;;;;2.20;2.10;;;22.40;99.90;;;22.81;100.00;101355.88;5054722;28;20568;-70
2023/08/12 04:42:40;;;;;;;2.30;2.20;;;22.40;99.90;;;22.86;100.00;101353.84;5062730;28;20452;-70
2023/08/12 04:45:11;;;;;;;2.40;2.30;;;22.40;99.90;;;22.89;100.00;101354.56;5064632;28;20140;-70
2023/08/12 04:47:39;;;;;;;2.40;2.30;;;22.50;99.90;;;22.94;100.00;101347.13;5055911;28;20045;-70
2023/08/12 04:50:08;;;;;;;4.03;3.85;;;22.60;99.90;;;22.96;100.00;101352.44;5066482;28;20102;-70
2023/08/12 04:52:37;;;;;;;2.40;2.30;;;22.60;99.90;;;22.99;100.00;101333.41;5071171;28;20053;-70
2023/08/12 04:55:10;;;;;;;2.33;2.22;;;22.70;99.90;;;23.05;100.00;101336.69;5079929;28;20059;-70
2023/08/12 04:57:39;;;;;;;2.28;2.17;;;22.60;99.90;;;23.06;100.00;101337.56;5054427;28;20048;-70
2023/08/12 05:00:09;;;;;;;2.30;2.20;;;22.70;99.90;;;23.04;100.00;101336.75;5055631;28;20049;-70
2023/08/12 05:02:37;;;;;;;2.20;2.10;;;22.70;99.90;;;23.04;100.00;101337.66;5062302;28;20061;-70
2023/08/12 05:05:07;;;;;;;2.33;2.22;;;22.70;99.90;;;23.08;100.00;101338.38;5062279;28;20127;-68
2023/08/12 05:07:36;;;;;;;2.28;2.17;;;22.70;99.90;;;23.08;100.00;101341.94;5062363;28;20136;-69
2023/08/12 05:10:10;;;;;;;2.10;2.00;;;22.70;99.90;;;23.07;100.00;101339.34;5070879;28;20049;-69
2023/08/12 05:12:39;;;;;;;2.20;2.10;;;22.70;99.90;;;23.07;100.00;101344.72;5054181;28;20053;-69
2023/08/12 05:15:09;;;;;;;2.13;2.03;;;22.70;99.90;;;23.04;100.00;101343.03;5055050;28;20069;-69
2023/08/12 05:17:37;;;;;;;2.20;2.10;;;22.70;99.90;;;23.06;100.00;101345.66;5062144;28;20057;-69
2023/08/12 05:20:09;;;;;;;2.30;2.20;;;22.60;99.90;;;23.04;100.00;101347.56;5060466;28;20091;-69
2023/08/12 05:22:37;;;;;;;3.55;3.25;;;22.60;99.90;;;23.07;100.00;101353.69;5065746;28;20041;-69
2023/08/12 05:25:07;;;;;;;2.28;2.17;;;22.70;99.90;;;23.04;100.00;101350.25;5070731;28;20086;-69
2023/08/12 05:27:37;;;;;;;3.50;3.30;;;22.70;99.90;;;23.04;100.00;101331.38;5066593;28;20132;-69
2023/08/12 05:30:07;;;;;;;;;;;22.70;99.90;;;23.02;100.00;101334.13;5055240;28;20049;-69
2023/08/12 05:32:35;;;;;;;2.47;2.38;;;22.70;99.90;;;22.89;100.00;101329.41;5055221;28;19924;-69
2023/08/12 05:35:05;;;;;;;3.00;2.90;;;22.60;99.90;;;23.02;100.00;101360.25;5055272;28;20118;-69
2023/08/12 05:37:33;;;;;;;2.38;2.28;;;22.70;99.90;;;23.04;100.00;101337.66;5056093;28;20053;-69
2023/08/12 05:40:03;;;;;;;2.20;2.10;;;22.70;99.90;;;23.04;100.00;101339.47;5065065;28;20122;-69
2023/08/12 05:42:31;;;;;;;2.00;1.90;;;22.60;99.90;;;23.03;100.00;101353.91;5064938;28;20045;-69
2023/08/12 05:45:01;;;;;;;2.47;2.38;;;22.60;99.90;;;23.00;100.00;101341.44;5063744;28;20083;-70
2023/08/12 05:47:29;;;;;;;2.43;2.33;;;22.60;99.90;;;22.38;100.00;101241.00;5065861;28;20041;-69
2023/08/12 05:49:57;;;;;;;2.45;2.35;;;22.60;99.90;;;23.02;100.00;101338.66;5063020;28;20760;-70
2023/08/12 05:52:26;;;;;;;3.85;3.65;;;22.60;99.90;;;22.99;100.00;101328.03;5054452;28;20390;-69
2023/08/12 05:54:54;;;;;;;2.15;2.05;;;22.60;99.90;;;23.02;100.00;101331.44;5054867;28;20131;-69
2023/08/12 05:57:23;;;;;;;2.28;2.17;;;22.70;99.90;;;22.99;100.00;101330.72;5054270;28;20048;-70
2023/08/12 05:59:54;;;;;;;2.35;2.25;;;22.60;99.90;;;23.01;100.00;101336.94;5055866;28;20084;-69
2023/08/12 06:02:24;;;;;;;2.30;2.20;;;22.60;99.90;;;22.98;100.00;101332.53;5064107;28;20044;-70
2023/08/12 06:04:53;;;;;;;2.20;2.10;;;22.60;99.90;;;22.98;100.00;101340.63;5060295;28;20052;-69
2023/08/12 06:07:23;;;;;;;2.50;2.40;;;22.60;99.90;;;22.99;100.00;101345.09;5064926;28;20052;-69
2023/08/12 06:09:51;;;;;;;2.20;2.10;;;22.60;99.90;;;22.99;100.00;101344.22;5062992;28;20053;-69
2023/08/12 06:12:20;;;;;;;2.08;1.98;;;22.60;99.90;;;23.00;100.00;101349.53;5065939;28;20040;-69
2023/08/12 06:14:48;;;;;;;2.17;2.08;;;22.60;99.90;;;23.01;100.00;101342.31;5053918;28;20487;-69
2023/08/12 06:17:16;;;;;;;2.40;2.30;;;22.60;99.90;;;22.96;100.00;101344.34;5069471;28;20052;-69
2023/08/12 06:19:46;;;;;;;2.30;2.20;;;22.60;99.90;;;22.88;100.00;101346.56;5054390;28;20057;-69
2023/08/12 06:22:14;;;;;;;2.10;2.00;;;22.50;99.90;;;22.84;100.00;101350.34;5059307;28;20120;-69
2023/08/12 06:24:43;;;;;;;2.50;2.40;;;22.40;99.90;;;22.79;100.00;101344.28;5063826;28;20135;-68
2023/08/12 06:27:11;;;;;;;2.33;2.22;;;22.40;99.90;;;22.80;100.00;101344.19;5064390;28;20045;-69
2023/08/12 06:29:39;;;;;;;2.20;2.10;;;22.30;99.90;;;22.67;100.00;101315.16;5062966;28;20036;-69
2023/08/12 06:32:08;;;;;;;2.30;2.20;;;22.40;99.90;;;22.76;100.00;101325.56;5064666;28;20048;-69
2023/08/12 06:34:36;;;;;;;2.00;1.90;;;22.30;99.90;;;22.77;100.00;101333.56;5062142;28;20052;-69
2023/08/12 06:37:06;;;;;;;2.30;2.20;;;22.40;99.90;;;22.71;100.00;101330.28;5065868;28;20076;-69
2023/08/12 06:39:34;;;;;;;2.35;2.25;;;22.40;99.90;;;22.79;100.00;101328.09;5061878;28;20041;-69
2023/08/12 06:42:03;;;;;;;2.88;2.78;;;22.40;99.90;;;22.82;100.00;101327.97;5064966;28;20497;-69
2023/08/12 06:44:31;;;;;;;2.28;2.17;;;22.40;99.90;;;22.87;100.00;101334.00;5057622;28;20052;-69
2023/08/12 06:47:00;;;;;;;2.30;2.20;;;22.50;99.90;;;22.87;100.00;101339.41;5062814;28;20135;-69
2023/08/12 06:49:28;;;;;;;2.20;2.10;;;22.40;99.90;;;22.91;100.00;101347.28;5063354;28;20512;-69
2023/08/12 06:51:56;;;;;;;2.20;2.10;;;22.50;99.90;;;22.90;100.00;101361.72;5063428;28;20122;-69
2023/08/12 06:54:26;;;;;;;2.97;2.78;;;22.50;99.90;;;22.11;100.00;101360.88;5062888;28;20074;-68
2023/08/12 06:56:54;;;;;;;4.60;3.23;;;22.00;99.90;;;21.33;100.00;101363.28;5059967;28;20053;-68
2023/08/12 06:59:23;;;;;;;2.58;2.47;;;21.20;99.90;;;21.16;99.41;101371.16;5064918;28;20529;-69
2023/08/12 07:01:51;;;;;;;2.67;2.58;;;20.90;99.90;;;21.01;98.46;101376.25;5061482;28;20049;-69
2023/08/12 07:04:19;;;;;;;2.85;2.75;;;20.70;99.90;;;20.58;98.46;101374.31;5052926;28;20049;-68
2023/08/12 07:06:48;;;;;;;3.13;2.92;;;20.40;99.90;;;20.39;98.81;101376.81;5052875;28;20049;-69
2023/08/12 07:09:16;;;;;;;2.95;2.85;;;20.10;99.90;;;20.32;99.18;101380.66;5052966;28;20220;-68
2023/08/12 07:11:46;;;;;;;4.05;2.92;;;20.00;99.90;;;20.18;100.00;101372.22;5054454;28;20041;-69
2023/08/12 07:14:14;;;;;;;2.70;2.60;;;19.90;99.90;;;20.24;100.00;101374.69;5063020;28;20079;-69
2023/08/12 07:16:42;;;;;;;2.72;2.63;;;19.90;99.90;;;20.35;100.00;101369.78;5063569;28;20102;-69
2023/08/12 07:19:11;;;;;;;2.55;2.45;;;20.00;99.90;;;20.38;100.00;101363.44;5069133;28;20070;-69
2023/08/12 07:21:43;;;;;;;2.78;2.67;;;20.00;99.90;;;20.36;100.00;101358.09;5064622;28;20068;-68
2023/08/12 07:24:12;;;;;;;2.58;2.47;;;20.10;99.90;;;20.43;100.00;101365.00;5060987;28;20049;-69
2023/08/12 07:26:40;;;;;;;2.53;2.42;;;20.10;99.90;;;20.52;100.00;101361.09;5061396;28;20364;-69
2023/08/12 07:29:10;;;;;;;2.75;2.65;;;20.20;99.90;;;20.58;100.00;101356.38;5063989;28;20441;-69
2023/08/12 07:31:39;;;;;;;2.92;2.83;;;20.30;99.90;;;20.55;100.00;101363.69;5062428;28;20041;-69
2023/08/12 07:34:07;;;;;;;2.60;2.50;;;20.30;99.90;;;20.62;100.00;101358.00;5062915;28;20037;-69
2023/08/12 07:36:35;;;;;;;2.40;2.30;;;20.30;99.90;;;20.68;100.00;101362.28;5062906;28;20098;-69
2023/08/12 07:39:04;;;;;;;2.85;2.75;;;20.40;99.90;;;20.62;100.00;101354.44;5062166;28;20063;-68
2023/08/12 07:41:33;;;;;;;3.40;3.28;;;20.30;99.90;;;20.67;100.00;101366.75;5063821;28;20072;-71
2023/08/12 07:44:01;;;;;;;2.65;2.55;;;20.30;99.90;;;20.70;100.00;101371.16;5061203;28;20040;-70
2023/08/12 07:46:31;;;;;;;2.45;2.35;;;20.40;99.90;;;20.73;100.00;101370.19;5064155;28;20048;-68
2023/08/12 07:48:59;;;;;;;2.55;2.45;;;20.40;99.90;;;20.87;100.00;101386.63;5052395;28;20131;-72
2023/08/12 07:51:28;;;;;;;2.70;2.60;;;20.50;99.90;;;20.98;100.00;101392.50;5052941;28;20053;-68
2023/08/12 07:53:56;;;;;;;2.50;2.40;;;20.60;99.90;;;21.03;100.00;101385.16;5052424;28;20048;-67
2023/08/12 07:56:25;;;;;;;2.70;2.60;;;20.70;99.90;;;21.11;100.00;101383.91;5060115;28;20398;-68
2023/08/12 07:58:53;;;;;;;2.60;2.50;;;20.80;99.90;;;21.18;100.00;101379.16;5067031;28;20048;-66
2023/08/12 08:01:22;;;;;;;2.25;2.15;;;20.80;99.90;;;21.32;100.00;101379.50;5066655;28;20044;-67
2023/08/12 08:03:52;;;;;;;2.50;2.40;;;21.00;99.90;;;21.34;100.00;101373.13;5066033;28;20501;-66
2023/08/12 08:06:21;;;;;;;;;;;21.00;99.90;;;21.39;100.00;101360.34;5067909;28;20044;-67
2023/08/12 08:08:50;;;;;;;2.60;2.50;;;21.00;99.90;;;21.49;100.00;101368.91;5071723;28;19975;-67
2023/08/12 08:11:18;;;;;;;2.63;2.53;;;21.20;99.90;;;21.55;100.00;101374.03;5068397;28;20043;-66
2023/08/12 08:13:47;;;;;;;2.47;2.38;;;21.20;99.90;;;21.62;100.00;101382.75;5056188;28;20397;-66
2023/08/12 08:16:15;;;;;;;2.60;2.50;;;21.30;99.90;;;21.63;99.69;101384.47;5056210;28;20049;-67
2023/08/12 08:18:44;;;;;;;2.40;2.30;;;21.30;99.90;;;21.69;99.13;101382.44;5056189;28;20045;-67
2023/08/12 08:21:13;;;;;;;2.38;2.28;;;21.40;99.90;;;21.81;98.88;101390.03;5063250;28;20438;-70
2023/08/12 08:23:42;;;;;;;2.40;2.30;;;21.50;99.90;;;21.88;98.47;101388.81;5066056;28;20047;-68
2023/08/12 08:26:11;;;;;;;2.28;2.17;;;21.60;99.90;;;21.97;98.20;101383.03;5081222;28;20101;-69
2023/08/12 08:28:39;;;;;;;2.30;2.20;;;21.70;99.90;;;21.46;97.37;101286.47;5067516;28;20053;-70
2023/08/12 08:31:09;;;;;;;2.47;2.38;;;21.70;99.90;;;22.14;97.00;101391.25;5065137;28;20106;-67
2023/08/12 08:33:37;;;;;;;2.28;2.17;;;21.80;99.90;;;22.25;96.50;101390.78;5067535;28;20072;-68
2023/08/12 08:36:06;;;;;;;2.50;2.40;;;21.90;99.90;;;22.38;96.46;101395.56;5071211;28;20110;-68
2023/08/12 08:38:35;;;;;;;2.55;2.45;;;22.00;99.90;;;22.45;95.76;101380.84;5055894;28;20045;-68
2023/08/12 08:41:10;;;;;;;2.53;2.43;;;22.10;99.90;;;22.59;96.04;101377.56;5055989;28;20052;-68
2023/08/12 08:43:43;;;;;;;2.10;2.00;;;22.20;99.90;;;22.65;95.66;101354.84;5057904;28;20295;-67
2023/08/12 08:46:15;;;;;;;2.88;2.78;;;22.40;99.90;;;22.81;95.18;101345.97;5064277;28;20424;-69
2023/08/12 08:48:44;;;;;;;2.35;2.25;;;22.60;99.90;;;23.21;95.85;101371.91;5064234;28;20049;-71
2023/08/12 08:51:13;;;;;;;2.50;2.40;;;22.90;99.90;;;23.54;95.64;101377.53;5066856;28;20037;-65
2023/08/12 08:53:43;;;;;;;2.50;2.40;;;23.20;99.90;;;23.66;90.91;101385.88;5064809;28;20110;-65
2023/08/12 08:56:13;;;;;;;2.58;2.47;;;23.40;99.90;;;23.82;89.25;101389.59;5065906;28;20391;-65
2023/08/12 08:58:43;;;;;;;2.15;2.05;;;23.50;99.90;;;24.05;89.72;101388.44;5066100;28;20040;-65
2023/08/12 09:01:11;;;;;;;2.10;2.00;;;23.70;99.90;;;24.21;86.47;101396.63;5064827;28;20040;-67
2023/08/12 09:03:42;;;;;;;2.38;2.28;;;23.90;99.90;;;23.85;84.85;101302.03;5066460;28;20056;-66
2023/08/12 09:06:11;;;;;;;2.17;2.08;;;24.10;99.90;;;24.52;83.64;101403.03;5063386;28;20045;-66
2023/08/12 09:08:46;;;;;;;2.58;2.47;;;24.20;99.90;;;24.62;80.37;101412.38;5055176;28;20118;-66
2023/08/12 09:11:15;;;;;;;2.00;1.90;;;24.30;99.90;;;24.65;76.43;101417.66;5055245;28;20045;-66
2023/08/12 09:13:44;;;;;;;2.03;1.92;;;24.40;99.90;;;24.52;71.94;101415.69;5055135;28;20434;-67
2023/08/12 09:16:12;;;;;;;2.15;2.05;;;24.30;99.90;;;24.53;71.72;101412.00;5057442;28;20490;-66
2023/08/12 09:18:44;;;;;;;2.08;1.98;;;24.20;99.90;;;24.50;72.15;101428.41;5064117;28;20124;-65
2023/08/12 09:21:13;;;;;;;2.50;2.40;;;24.20;99.90;;;24.51;72.50;101428.31;5066796;28;20071;-66
2023/08/12 09:23:44;;;;;;;1.97;1.87;;;24.20;99.90;;;24.65;73.92;101435.72;5054913;28;20095;-66
2023/08/12 09:26:19;;;;;;;2.10;2.00;;;24.30;99.90;;;24.91;74.31;101437.94;5054917;28;20469;-66
2023/08/12 09:28:49;;;;;;;2.03;1.92;;;24.50;99.90;;;25.08;74.85;101437.88;5055450;28;20049;-65
2023/08/12 09:31:28;;;;;;;;;;;24.70;99.90;;;24.94;73.62;101392.63;5055324;28;20059;-66
2023/08/12 09:34:00;;;;;;;2.20;2.10;;;24.80;99.90;;;24.98;72.65;101431.22;5054822;28;20460;-66
2023/08/12 09:36:30;;;;;;;2.10;2.00;;;24.70;99.90;;;24.86;73.55;101435.47;5054689;28;20041;-66
2023/08/12 09:39:00;;;;;;;2.00;1.90;;;24.60;99.90;;;24.75;73.28;101445.13;5054658;28;20552;-66
2023/08/12 09:41:29;;;;;;;2.17;2.08;;;24.50;99.90;;;24.62;73.10;101449.41;5057683;28;20049;-66
2023/08/12 09:43:57;;;;;;;2.28;2.17;;;24.30;99.90;;;24.58;73.51;101453.25;5070321;28;20718;-66
2023/08/12 09:46:27;;;;;;;1.95;1.85;;;24.20;99.90;;;24.61;73.71;101448.53;5065969;28;20098;-66
2023/08/12 09:48:56;;;;;;;2.20;2.10;;;24.20;99.90;;;24.71;74.69;101448.91;5073460;28;20048;-66
2023/08/12 09:51:24;;;;;;;5.57;2.90;;;24.40;99.90;;;24.75;75.96;101447.84;5054396;28;20458;-66
2023/08/12 09:53:53;;;;;;;2.30;2.20;;;24.40;99.90;;;24.87;75.14;101474.25;5054526;28;20478;-66
2023/08/12 09:56:24;;;;;;;2.00;1.90;;;24.50;99.90;;;24.32;74.89;101365.34;5053472;28;20063;-66
2023/08/12 09:58:53;;;;;;;2.30;2.20;;;24.60;99.90;;;24.95;74.54;101463.88;5054591;28;20045;-66
2023/08/12 10:01:22;;;;;;;1.73;1.73;;;24.60;99.90;;;25.08;73.79;101454.13;5062813;28;20130;-66
2023/08/12 10:03:52;;;;;;;3.45;2.65;;;24.70;99.90;;;25.21;73.96;101449.78;5065746;28;20044;-65
2023/08/12 10:06:21;;;;;;;1.92;1.83;;;24.80;99.90;;;25.34;73.50;101453.53;5062621;28;20076;-66
2023/08/12 10:08:50;;;;;;;2.20;2.10;;;25.00;99.90;;;25.50;73.77;101456.28;5065884;28;20109;-66
2023/08/12 10:11:19;;;;;;;1.65;1.65;;;25.10;99.90;;;25.04;72.55;101374.00;5062224;28;20048;-66
2023/08/12 10:13:49;;;;;;;2.00;1.90;;;25.20;99.90;;;25.56;71.38;101462.25;5065099;28;20102;-66
2023/08/12 10:16:19;;;;;;;2.00;1.90;;;25.30;99.90;;;25.79;72.89;101464.50;5063434;28;20052;-66
2023/08/12 10:18:49;;;;;;;2.10;2.00;;;25.40;99.90;;;26.00;72.68;101456.09;5063058;28;20146;-66